createdAt,value
2018-12-24T00:02:55.568Z,96.39
2018-12-24T00:06:02.456Z,95.70
2018-12-24T00:09:09.124Z,96.25
2018-12-24T00:12:16.064Z,95.33
2018-12-24T00:15:22.796Z,95.95
2018-12-24T00:18:29.564Z,95.47
2018-12-24T00:21:36.267Z,95.77
2018-12-24T00:24:43.269Z,96.37
2018-12-24T00:27:50.210Z,96.29
2018-12-24T00:30:57.106Z,97.20
2018-12-24T00:34:04.275Z,97.65
2018-12-24T00:37:10.933Z,97.79
2018-12-24T00:40:17.856Z,97.87
2018-12-24T00:43:24.658Z,98.29
2018-12-24T00:46:31.466Z,97.56
2018-12-24T00:49:38.125Z,96.70
2018-12-24T00:52:47.827Z,97.00
2018-12-24T00:55:54.799Z,96.43
2018-12-24T00:59:01.945Z,96.27
2018-12-24T01:02:08.890Z,97.20
2018-12-24T01:05:15.821Z,96.81
2018-12-24T01:08:22.738Z,96.70
2018-12-24T01:11:29.665Z,96.79
2018-12-24T01:14:36.776Z,95.35
2018-12-24T01:17:45.504Z,94.77
2018-12-24T01:20:52.473Z,95.93
2018-12-24T01:23:59.197Z,95.55
2018-12-24T01:27:05.919Z,95.50
2018-12-24T01:30:12.918Z,95.97
2018-12-24T01:33:19.888Z,97.12
2018-12-24T01:36:28.685Z,95.85
2018-12-24T01:39:35.551Z,96.67
2018-12-24T01:42:44.339Z,96.44
2018-12-24T01:45:51.480Z,97.05
2018-12-24T01:48:58.448Z,96.88
2018-12-24T01:52:05.316Z,97.77
2018-12-24T01:55:12.267Z,98.00
2018-12-24T01:58:19.129Z,97.10
2018-12-24T02:01:26.329Z,97.96
2018-12-24T02:04:33.016Z,98.29
2018-12-24T02:07:39.994Z,97.57
2018-12-24T02:10:46.940Z,97.80
2018-12-24T02:13:53.854Z,98.05
2018-12-24T02:17:00.748Z,97.67
2018-12-24T02:20:07.683Z,97.93
2018-12-24T02:23:14.652Z,97.08
2018-12-24T02:26:21.402Z,97.34
2018-12-24T02:29:28.371Z,97.02
2018-12-24T02:32:35.035Z,96.83
2018-12-24T02:35:45.073Z,96.85
2018-12-24T02:38:52.411Z,96.94
2018-12-24T02:41:59.431Z,96.63
2018-12-24T02:45:06.156Z,97.35
2018-12-24T02:48:12.815Z,97.29
2018-12-24T02:51:19.818Z,97.69
2018-12-24T02:54:26.684Z,97.56
2018-12-24T02:57:33.613Z,97.42
2018-12-24T03:00:42.003Z,97.76
2018-12-24T03:03:49.000Z,97.52
2018-12-24T03:06:55.940Z,97.57
2018-12-24T03:10:02.747Z,97.71
2018-12-24T03:13:09.463Z,98.23
2018-12-24T03:16:16.695Z,97.79
2018-12-24T03:19:23.621Z,98.12
2018-12-24T03:22:32.245Z,97.75
2018-12-24T03:25:39.491Z,98.10
2018-12-24T03:28:46.419Z,98.29
2018-12-24T03:31:53.102Z,98.59
2018-12-24T03:34:59.868Z,98.75
2018-12-24T03:38:07.054Z,99.00
2018-12-24T03:41:14.085Z,98.92
2018-12-24T03:44:21.142Z,98.79
2018-12-24T03:47:28.434Z,99.22
2018-12-24T03:50:35.318Z,99.19
2018-12-24T03:53:44.016Z,99.14
2018-12-24T03:56:50.902Z,99.38
2018-12-24T03:59:57.930Z,99.48
2018-12-24T04:03:04.658Z,99.33
2018-12-24T04:06:11.873Z,99.11
2018-12-24T04:09:18.583Z,98.99
2018-12-24T04:12:25.592Z,98.75
2018-12-24T04:15:32.498Z,98.99
2018-12-24T04:18:39.596Z,98.75
2018-12-24T04:21:46.562Z,99.01
2018-12-24T04:24:53.543Z,99.08
2018-12-24T04:28:00.196Z,98.77
2018-12-24T04:31:06.908Z,98.42
2018-12-24T04:34:13.848Z,98.38
2018-12-24T04:37:20.778Z,98.23
2018-12-24T04:40:27.666Z,98.63
2018-12-24T04:43:35.108Z,98.62
2018-12-24T04:46:45.154Z,98.42
2018-12-24T04:49:52.071Z,99.03
2018-12-24T04:52:58.855Z,98.81
2018-12-24T04:56:05.552Z,99.04
2018-12-24T04:59:12.668Z,98.81
2018-12-24T05:02:19.636Z,98.66
2018-12-24T05:05:26.532Z,98.33
2018-12-24T05:08:33.586Z,98.01
2018-12-24T05:11:40.286Z,98.26
2018-12-24T05:14:47.499Z,98.15
2018-12-24T05:17:54.422Z,98.26
2018-12-24T05:21:01.359Z,98.46
2018-12-24T05:24:08.239Z,98.27
2018-12-24T05:27:15.206Z,98.52
2018-12-24T05:30:22.365Z,98.44
2018-12-24T05:33:29.352Z,98.38
2018-12-24T05:36:36.239Z,98.09
2018-12-24T05:39:43.221Z,98.43
2018-12-24T05:42:50.403Z,98.34
2018-12-24T05:45:57.788Z,98.43
2018-12-24T05:49:04.936Z,98.32
2018-12-24T05:52:12.078Z,98.44
2018-12-24T05:55:18.995Z,98.65
2018-12-24T05:58:25.908Z,98.61
2018-12-24T06:01:32.631Z,98.69
2018-12-24T06:04:39.816Z,99.01
2018-12-24T06:07:48.109Z,99.09
2018-12-24T06:10:55.345Z,99.25
2018-12-24T06:14:02.036Z,99.44
2018-12-24T06:17:09.037Z,99.47
2018-12-24T06:20:15.934Z,99.65
2018-12-24T06:23:22.887Z,99.50
2018-12-24T06:26:29.781Z,99.37
2018-12-24T06:29:37.069Z,99.58
2018-12-24T06:32:46.366Z,99.43
2018-12-24T06:35:53.523Z,99.52
2018-12-24T06:39:00.451Z,99.77
2018-12-24T06:42:07.471Z,99.57
2018-12-24T06:45:14.347Z,99.16
2018-12-24T06:48:21.785Z,99.30
2018-12-24T06:51:28.668Z,99.52
2018-12-24T06:54:35.600Z,99.41
2018-12-24T06:57:44.692Z,98.38
2018-12-24T07:00:51.693Z,97.89
2018-12-24T07:03:58.671Z,97.64
2018-12-24T07:07:07.725Z,97.41
2018-12-24T07:10:14.707Z,97.61
2018-12-24T07:13:21.903Z,96.82
2018-12-24T07:16:28.890Z,97.49
2018-12-24T07:19:35.811Z,97.34
2018-12-24T07:22:45.082Z,97.16
2018-12-24T07:25:52.247Z,97.18
2018-12-24T07:29:01.963Z,97.75
2018-12-24T07:32:08.670Z,97.94
2018-12-24T07:35:15.348Z,97.53
2018-12-24T07:38:22.313Z,97.42
2018-12-24T07:41:28.996Z,97.37
2018-12-24T07:44:36.023Z,97.50
2018-12-24T07:47:45.683Z,97.81
2018-12-24T07:50:52.743Z,98.34
2018-12-24T07:53:59.664Z,98.68
2018-12-24T07:57:06.608Z,98.79
2018-12-24T08:00:13.249Z,98.50
2018-12-24T08:03:20.136Z,98.50
2018-12-24T08:06:27.278Z,98.65
2018-12-24T08:09:34.248Z,98.82
2018-12-24T08:12:41.221Z,98.77
2018-12-24T08:15:48.132Z,98.19
2018-12-24T08:18:55.041Z,98.19
2018-12-24T08:22:01.831Z,98.19
2018-12-24T08:25:08.951Z,98.75
2018-12-24T08:28:15.952Z,98.55
2018-12-24T08:31:23.996Z,98.43
2018-12-24T08:34:31.400Z,98.83
2018-12-24T08:37:38.111Z,98.67
2018-12-24T08:40:44.994Z,98.82
2018-12-24T08:43:51.820Z,99.13
2018-12-24T08:46:58.744Z,99.36
2018-12-24T08:50:05.983Z,99.57
2018-12-24T08:53:13.347Z,99.50
2018-12-24T08:56:20.222Z,99.08
2018-12-24T08:59:27.246Z,98.48
2018-12-24T09:02:34.685Z,98.40
2018-12-24T09:05:42.783Z,98.07
2018-12-24T09:08:49.434Z,98.18
2018-12-24T09:11:56.686Z,98.25
2018-12-24T09:15:03.632Z,98.16
2018-12-24T09:18:10.729Z,98.12
2018-12-24T09:21:17.660Z,98.33
2018-12-24T09:24:24.822Z,98.32
2018-12-24T09:27:31.789Z,98.72
2018-12-24T09:30:44.870Z,98.07
2018-12-24T09:33:52.488Z,98.32
2018-12-24T09:36:59.854Z,98.40
2018-12-24T09:40:08.579Z,98.71
2018-12-24T09:43:15.738Z,98.34
2018-12-24T09:46:22.647Z,98.72
2018-12-24T09:49:29.705Z,98.38
2018-12-24T09:52:45.776Z,98.57
2018-12-24T09:55:53.089Z,98.38
2018-12-24T09:58:59.976Z,98.21
2018-12-24T10:02:07.326Z,98.12
2018-12-24T10:05:18.196Z,98.81
2018-12-24T10:08:26.177Z,98.56
2018-12-24T10:11:33.089Z,98.54
2018-12-24T10:14:40.295Z,98.39
2018-12-24T10:17:49.956Z,98.95
2018-12-24T10:20:56.980Z,99.15
2018-12-24T10:24:04.190Z,98.92
2018-12-24T10:27:11.423Z,99.29
2018-12-24T10:30:18.445Z,98.66
2018-12-24T10:33:25.452Z,98.47
2018-12-24T10:36:32.566Z,98.62
2018-12-24T10:39:39.750Z,98.56
2018-12-24T10:42:48.384Z,98.09
2018-12-24T10:45:56.900Z,98.23
2018-12-24T10:49:10.305Z,97.97
2018-12-24T10:52:18.117Z,98.23
2018-12-24T10:55:25.305Z,98.45
2018-12-24T10:58:32.441Z,98.41
2018-12-24T11:01:39.471Z,97.69
2018-12-24T11:04:48.053Z,97.22
2018-12-24T11:07:54.927Z,96.38
2018-12-24T11:11:02.742Z,96.91
2018-12-24T11:14:09.893Z,96.48
2018-12-24T11:17:17.183Z,96.34
2018-12-24T11:20:24.396Z,96.13
2018-12-24T11:23:31.373Z,96.58
2018-12-24T11:26:38.281Z,96.85
2018-12-24T11:29:45.405Z,96.73
2018-12-24T11:32:52.073Z,95.62
2018-12-24T11:35:59.312Z,95.98
2018-12-24T11:39:06.963Z,96.01
2018-12-24T11:42:14.057Z,95.44
2018-12-24T11:45:21.057Z,94.41
2018-12-24T11:48:28.043Z,93.99
2018-12-24T11:51:35.120Z,93.48
2018-12-24T11:54:42.057Z,92.69
2018-12-24T11:57:48.944Z,93.31
2018-12-24T12:00:56.044Z,92.83
2018-12-24T12:04:03.180Z,93.25
2018-12-24T12:07:10.325Z,92.60
2018-12-24T12:10:17.248Z,93.30
2018-12-24T12:13:24.174Z,93.31
2018-12-24T12:16:31.858Z,93.27
2018-12-24T12:19:39.101Z,93.81
2018-12-24T12:22:45.859Z,93.74
2018-12-24T12:25:52.605Z,93.40
2018-12-24T12:28:59.556Z,93.06
2018-12-24T12:32:06.486Z,92.72
2018-12-24T12:35:13.412Z,92.50
2018-12-24T12:38:20.425Z,92.80
2018-12-24T12:41:27.433Z,92.95
2018-12-24T12:44:34.543Z,93.95
2018-12-24T12:47:41.670Z,94.35
2018-12-24T12:50:48.375Z,94.49
2018-12-24T12:53:55.576Z,93.76
2018-12-24T12:57:02.317Z,93.92
2018-12-24T13:00:09.375Z,94.45
2018-12-24T13:03:17.089Z,94.16
2018-12-24T13:06:23.990Z,94.27
2018-12-24T13:09:31.031Z,95.24
2018-12-24T13:12:38.032Z,95.95
2018-12-24T13:15:45.210Z,95.65
2018-12-24T13:18:52.103Z,96.35
2018-12-24T13:22:04.245Z,96.08
2018-12-24T13:25:08.003Z,96.60
2018-12-24T13:28:15.147Z,96.36
2018-12-24T13:31:22.029Z,96.39
2018-12-24T13:34:28.967Z,96.55
2018-12-24T13:37:36.082Z,96.44
2018-12-24T13:40:43.144Z,96.41
2018-12-24T13:43:50.033Z,96.56
2018-12-24T13:46:56.956Z,96.10
2018-12-24T13:50:04.165Z,96.14
2018-12-24T13:53:11.100Z,95.96
2018-12-24T13:56:18.029Z,96.24
2018-12-24T13:59:26.066Z,96.27
2018-12-24T14:02:33.078Z,96.97
2018-12-24T14:05:40.483Z,96.41
2018-12-24T14:08:47.560Z,97.06
2018-12-24T14:11:54.585Z,97.18
2018-12-24T14:15:01.488Z,97.03
2018-12-24T14:18:08.644Z,97.04
2018-12-24T14:21:15.627Z,96.71
2018-12-24T14:24:22.356Z,96.33
2018-12-24T14:27:29.033Z,96.17
2018-12-24T14:30:36.007Z,94.92
2018-12-24T14:33:43.034Z,94.93
2018-12-24T14:36:50.512Z,94.54
2018-12-24T14:39:57.703Z,94.52
2018-12-24T14:43:04.719Z,94.26
2018-12-24T14:46:11.863Z,94.00
2018-12-24T14:49:18.785Z,93.58
2018-12-24T14:52:25.911Z,93.64
2018-12-24T14:55:32.666Z,94.26
2018-12-24T14:58:39.473Z,93.49
2018-12-24T15:01:46.618Z,93.77
2018-12-24T15:04:53.894Z,93.87
2018-12-24T15:08:00.892Z,93.28
2018-12-24T15:11:07.797Z,93.09
2018-12-24T15:14:15.088Z,92.65
2018-12-24T15:17:22.166Z,92.34
2018-12-24T15:20:29.671Z,91.81
2018-12-24T15:23:36.552Z,92.78
2018-12-24T15:26:45.839Z,92.03
2018-12-24T15:29:52.874Z,91.69
2018-12-24T15:33:00.035Z,91.15
2018-12-24T15:36:07.031Z,90.52
2018-12-24T15:39:13.991Z,89.47
2018-12-24T15:42:21.019Z,89.68
2018-12-24T15:45:28.202Z,90.05
2018-12-24T15:48:35.587Z,89.87
2018-12-24T15:51:46.316Z,89.64
2018-12-24T15:54:53.683Z,91.20
2018-12-24T15:58:00.738Z,89.23
2018-12-24T16:01:07.899Z,89.82
2018-12-24T16:04:15.074Z,87.87
2018-12-24T16:07:22.162Z,86.78
2018-12-24T16:10:29.487Z,86.92
2018-12-24T16:13:36.377Z,87.47
2018-12-24T16:16:50.816Z,87.41
2018-12-24T16:19:52.502Z,87.85
2018-12-24T16:22:59.289Z,87.03
2018-12-24T16:26:06.186Z,87.21
2018-12-24T16:29:13.585Z,87.41
2018-12-24T16:32:20.518Z,85.94
2018-12-24T16:35:27.515Z,85.47
2018-12-24T16:38:34.737Z,85.67
2018-12-24T16:41:41.793Z,86.12
2018-12-24T16:44:48.840Z,85.87
2018-12-24T16:47:55.858Z,86.03
2018-12-24T16:51:03.641Z,86.84
2018-12-24T16:54:12.314Z,88.17
2018-12-24T16:57:19.151Z,86.85
2018-12-24T17:00:26.292Z,86.51
2018-12-24T17:03:33.075Z,85.15
2018-12-24T17:06:40.767Z,85.99
2018-12-24T17:09:47.894Z,87.26
2018-12-24T17:12:54.993Z,86.44
2018-12-24T17:16:01.878Z,87.57
2018-12-24T17:19:09.197Z,86.13
2018-12-24T17:22:16.107Z,86.72
2018-12-24T17:25:29.204Z,87.29
2018-12-24T17:28:36.294Z,86.45
2018-12-24T17:31:44.098Z,85.67
2018-12-24T17:34:51.121Z,87.68
2018-12-24T17:37:58.336Z,87.40
2018-12-24T17:41:05.043Z,86.15
2018-12-24T17:44:12.271Z,87.31
2018-12-24T17:47:19.454Z,87.48
2018-12-24T17:50:26.548Z,87.59
2018-12-24T17:53:33.425Z,88.65
2018-12-24T17:56:40.722Z,87.72
2018-12-24T17:59:47.562Z,88.12
2018-12-24T18:02:54.485Z,88.52
2018-12-24T18:06:02.739Z,88.90
2018-12-24T18:09:10.216Z,89.28
2018-12-24T18:12:17.276Z,88.86
2018-12-24T18:15:24.333Z,88.93
2018-12-24T18:18:32.717Z,88.14
2018-12-24T18:21:42.309Z,88.91
2018-12-24T18:24:49.207Z,89.50
2018-12-24T18:27:56.135Z,87.67
2018-12-24T18:31:03.321Z,88.88
2018-12-24T18:34:10.235Z,89.14
2018-12-24T18:37:17.191Z,88.61
2018-12-24T18:40:24.111Z,89.50
2018-12-24T18:43:31.036Z,89.57
2018-12-24T18:46:38.993Z,89.19
2018-12-24T18:49:48.456Z,89.45
2018-12-24T18:52:55.425Z,89.56
2018-12-24T18:56:02.404Z,89.58
2018-12-24T18:59:09.308Z,89.87
2018-12-24T19:02:16.436Z,89.50
2018-12-24T19:05:24.929Z,89.44
2018-12-24T19:08:34.836Z,89.60
2018-12-24T19:11:43.200Z,89.08
2018-12-24T19:14:50.302Z,89.15
2018-12-24T19:17:57.308Z,90.22
2018-12-24T19:21:04.209Z,90.47
2018-12-24T19:24:11.428Z,90.32
2018-12-24T19:27:19.414Z,90.86
2018-12-24T19:30:26.378Z,91.33
2018-12-24T19:33:33.190Z,90.33
2018-12-24T19:36:40.298Z,90.63
2018-12-24T19:39:48.443Z,90.45
2018-12-24T19:42:55.721Z,91.12
2018-12-24T19:46:02.386Z,90.38
2018-12-24T19:49:09.299Z,90.44
2018-12-24T19:52:16.230Z,91.04
2018-12-24T19:55:23.173Z,90.24
2018-12-24T19:58:32.009Z,91.43
2018-12-24T20:01:39.188Z,91.33
2018-12-24T20:04:46.071Z,91.80
2018-12-24T20:07:53.184Z,91.12
2018-12-24T20:11:00.124Z,91.52
2018-12-24T20:14:07.115Z,90.52
2018-12-24T20:17:13.961Z,91.28
2018-12-24T20:20:21.571Z,90.65
2018-12-24T20:23:28.538Z,91.22
2018-12-24T20:26:35.584Z,91.30
2018-12-24T20:29:42.706Z,90.45
2018-12-24T20:32:49.651Z,91.05
2018-12-24T20:35:56.541Z,90.89
2018-12-24T20:39:05.477Z,91.76
2018-12-24T20:42:12.556Z,91.54
2018-12-24T20:45:19.571Z,91.73
2018-12-24T20:48:26.448Z,91.14
2018-12-24T20:51:33.699Z,91.58
2018-12-24T20:54:40.640Z,90.72
2018-12-24T20:57:47.537Z,91.67
2018-12-24T21:00:54.815Z,91.55
2018-12-24T21:04:01.614Z,91.76
2018-12-24T21:07:08.673Z,91.54
2018-12-24T21:10:17.576Z,92.01
2018-12-24T21:13:24.735Z,91.70
2018-12-24T21:16:31.998Z,92.49
2018-12-24T21:19:38.979Z,92.74
2018-12-24T21:22:46.451Z,92.48
2018-12-24T21:25:53.484Z,92.59
2018-12-24T21:29:00.259Z,92.70
2018-12-24T21:32:06.988Z,93.02
2018-12-24T21:35:13.711Z,92.90
2018-12-24T21:38:20.396Z,93.48
2018-12-24T21:41:27.304Z,94.30
2018-12-24T21:44:34.241Z,94.83
2018-12-24T21:47:41.597Z,94.74
2018-12-24T21:50:48.274Z,95.07
2018-12-24T21:53:55.020Z,95.62
2018-12-24T21:57:01.913Z,95.57
2018-12-24T22:00:09.276Z,95.34
2018-12-24T22:03:19.703Z,95.35
2018-12-24T22:06:28.529Z,94.75
2018-12-24T22:09:35.535Z,95.04
2018-12-24T22:12:42.539Z,95.43
2018-12-24T22:15:49.525Z,95.41
2018-12-24T22:18:56.725Z,95.12
2018-12-24T22:22:03.464Z,95.10
2018-12-24T22:25:10.658Z,94.61
2018-12-24T22:28:17.804Z,95.42
2018-12-24T22:31:24.794Z,95.01
2018-12-24T22:34:31.892Z,93.73
2018-12-24T22:37:38.905Z,94.29
2018-12-24T22:40:46.290Z,93.41
2018-12-24T22:43:53.293Z,93.80
2018-12-24T22:47:00.459Z,93.58
2018-12-24T22:50:07.423Z,93.00
2018-12-24T22:53:15.445Z,92.62
2018-12-24T22:56:22.280Z,92.78
2018-12-24T22:59:29.304Z,92.84
2018-12-24T23:02:36.021Z,92.50
2018-12-24T23:05:45.464Z,92.32
2018-12-24T23:08:52.366Z,92.60
2018-12-24T23:11:59.344Z,93.00
2018-12-24T23:15:06.743Z,93.11
2018-12-24T23:18:13.479Z,92.76
2018-12-24T23:21:21.107Z,93.04
2018-12-24T23:24:27.986Z,92.39
2018-12-24T23:27:35.427Z,92.56
2018-12-24T23:30:43.390Z,92.42
2018-12-24T23:33:50.340Z,93.27
2018-12-24T23:36:57.890Z,93.89
2018-12-24T23:40:05.746Z,92.82
2018-12-24T23:43:13.284Z,93.25
2018-12-24T23:46:20.324Z,92.89
2018-12-24T23:49:27.298Z,93.31
2018-12-24T23:52:35.288Z,93.53
2018-12-24T23:55:42.695Z,93.76
2018-12-24T23:58:49.701Z,93.82
